Time;durP1;ratioP1;P1;durP2;ratioP2;P2;SDS_P1;SDS_P2;PMS_P1;PMS_P2;Temp;Humidity;BMP_temperature;BMP_pressure;BME280_temperature;BME280_humidity;BME280_pressure;Samples;Min_cycle;Max_cycle;Signal;HPM_P1;HPM_P2
2022/06/19 00:01:29;;;;;;;4.10;0.95;;;;;;;;;;4996184;28;20589;-61
2022/06/19 00:03:56;;;;;;;4.88;1.10;;;;;;;;;;4995634;28;20050;-61
2022/06/19 00:06:23;;;;;;;2.25;1.25;;;;;;;;;;5013918;28;20103;-61
2022/06/19 00:08:51;;;;;;;2.47;0.98;;;;;;;;;;5013547;28;20434;-61
2022/06/19 00:11:19;;;;;;;4.15;1.30;;;;;;;;;;5012292;28;20081;-61
2022/06/19 00:13:45;;;;;;;3.25;1.02;;;;;;;;;;5012524;28;20050;-61
2022/06/19 00:16:11;;;;;;;4.63;1.52;;;;;;;;;;5012496;28;20052;-61
2022/06/19 00:18:40;;;;;;;4.05;1.70;;;;;;;;;;5013320;28;20100;-61
2022/06/19 00:21:07;;;;;;;3.05;1.30;;;;;;;;;;5003821;28;20058;-61
2022/06/19 00:23:33;;;;;;;3.47;1.20;;;;;;;;;;4993757;28;20424;-61
2022/06/19 00:25:59;;;;;;;5.63;1.50;;;;;;;;;;4992596;28;20046;-61
2022/06/19 00:28:25;;;;;;;4.43;1.00;;;;;;;;;;4992810;28;20039;-61
2022/06/19 00:30:51;;;;;;;8.27;1.77;;;;;;;;;;4993705;28;20038;-61
2022/06/19 00:33:19;;;;;;;4.82;1.10;;;;;;;;;;4998482;28;20064;-61
2022/06/19 00:35:45;;;;;;;3.40;1.08;;;;;;;;;;4995082;28;20476;-61
2022/06/19 00:38:11;;;;;;;6.53;1.27;;;;;;;;;;5001261;28;20053;-61
2022/06/19 00:40:38;;;;;;;2.42;1.23;;;;;;;;;;5005148;28;20173;-61
2022/06/19 00:43:04;;;;;;;3.22;1.00;;;;;;;;;;4991880;28;20042;-61
2022/06/19 00:45:32;;;;;;;3.28;1.35;;;;;;;;;;5008167;28;20053;-61
2022/06/19 00:47:58;;;;;;;5.18;1.15;;;;;;;;;;4992932;28;20042;-61
2022/06/19 00:50:26;;;;;;;5.38;1.20;;;;;;;;;;5012373;28;20057;-61
2022/06/19 00:52:53;;;;;;;8.10;1.60;;;;;;;;;;4978843;28;20068;-61
2022/06/19 00:55:19;;;;;;;4.70;1.17;;;;;;;;;;5011028;28;20057;-61
2022/06/19 00:57:48;;;;;;;5.90;1.00;;;;;;;;;;5011280;28;20312;-61
2022/06/19 01:00:29;;;;;;;4.55;1.30;;;;;;;;;;5010987;28;20448;-61
2022/06/19 01:02:57;;;;;;;7.43;1.40;;;;;;;;;;5012826;28;20053;-61
2022/06/19 01:05:25;;;;;;;3.67;1.05;;;;;;;;;;5012560;28;20046;-61
2022/06/19 01:07:51;;;;;;;2.58;1.48;;;;;;;;;;5012492;28;20041;-61
2022/06/19 01:10:17;;;;;;;4.68;1.20;;;;;;;;;;5011265;28;20246;-61
2022/06/19 01:12:45;;;;;;;5.80;1.25;;;;;;;;;;5009027;28;20038;-61
2022/06/19 01:15:13;;;;;;;5.60;1.05;;;;;;;;;;5005946;28;20117;-61
2022/06/19 01:17:39;;;;;;;4.03;1.13;;;;;;;;;;4992696;28;20468;-61
2022/06/19 01:20:08;;;;;;;2.00;0.98;;;;;;;;;;4991967;28;20538;-61
2022/06/19 01:22:51;;;;;;;6.75;1.48;;;;;;;;;;5009777;28;20042;-61
2022/06/19 01:25:18;;;;;;;4.50;1.30;;;;;;;;;;5010507;28;20195;-61
2022/06/19 01:30:39;;;;;;;6.57;1.20;;;;;;;;;;5011366;28;20472;-61
2022/06/19 01:33:07;;;;;;;4.53;1.30;;;;;;;;;;5010506;28;20049;-61
2022/06/19 01:35:35;;;;;;;5.40;1.30;;;;;;;;;;4992367;28;20052;-61
2022/06/19 01:38:03;;;;;;;3.03;0.82;;;;;;;;;;4980982;28;20049;-61
2022/06/19 01:40:31;;;;;;;2.95;1.00;;;;;;;;;;4991175;28;20062;-61
2022/06/19 01:42:57;;;;;;;5.97;1.00;;;;;;;;;;4990756;28;20070;-61
2022/06/19 01:45:24;;;;;;;1.77;0.90;;;;;;;;;;4992419;28;20046;-61
2022/06/19 01:47:50;;;;;;;3.03;0.88;;;;;;;;;;4975411;28;20129;-61
2022/06/19 01:50:19;;;;;;;4.22;1.20;;;;;;;;;;4971401;28;20130;-61
2022/06/19 01:52:47;;;;;;;2.70;0.95;;;;;;;;;;4972727;28;20050;-61
2022/06/19 01:55:15;;;;;;;8.73;2.00;;;;;;;;;;4970636;28;20178;-61
2022/06/19 01:57:43;;;;;;;3.17;1.20;;;;;;;;;;4971920;28;20043;-61
2022/06/19 02:00:11;;;;;;;6.50;1.58;;;;;;;;;;4974592;28;20050;-61
2022/06/19 02:02:37;;;;;;;2.30;1.00;;;;;;;;;;4972724;28;20117;-61
2022/06/19 02:05:04;;;;;;;4.13;2.00;;;;;;;;;;4980994;28;20516;-61
2022/06/19 02:07:31;;;;;;;5.68;1.70;;;;;;;;;;4991051;28;20096;-61
2022/06/19 02:09:59;;;;;;;2.03;1.05;;;;;;;;;;4976099;28;20047;-61
2022/06/19 02:12:27;;;;;;;3.03;0.93;;;;;;;;;;4990934;28;20084;-61
2022/06/19 02:14:53;;;;;;;3.17;1.10;;;;;;;;;;4991809;28;20157;-61
2022/06/19 02:17:22;;;;;;;4.97;0.85;;;;;;;;;;4991506;28;20042;-61
2022/06/19 02:19:48;;;;;;;4.82;1.00;;;;;;;;;;4991335;28;20050;-61
2022/06/19 02:22:16;;;;;;;2.10;1.10;;;;;;;;;;4990701;28;20050;-61
2022/06/19 02:24:42;;;;;;;6.30;1.35;;;;;;;;;;4990691;28;20053;-61
2022/06/19 02:27:09;;;;;;;3.17;1.23;;;;;;;;;;4978677;28;20050;-61
2022/06/19 02:29:36;;;;;;;2.17;1.00;;;;;;;;;;4991112;28;20052;-61
2022/06/19 02:32:02;;;;;;;2.08;0.85;;;;;;;;;;4991559;28;20050;-61
2022/06/19 02:34:42;;;;;;;3.60;0.75;;;;;;;;;;4981716;28;20082;-61
2022/06/19 02:37:14;;;;;;;3.50;0.90;;;;;;;;;;4973284;28;20062;-61
2022/06/19 02:39:48;;;;;;;2.75;1.20;;;;;;;;;;4990510;28;20083;-61
2022/06/19 02:42:20;;;;;;;3.58;0.90;;;;;;;;;;4973500;28;20061;-61
2022/06/19 02:44:48;;;;;;;2.83;0.80;;;;;;;;;;4990968;28;20050;-61
2022/06/19 02:47:14;;;;;;;2.88;0.77;;;;;;;;;;4990988;28;20085;-61
2022/06/19 02:49:40;;;;;;;2.50;1.00;;;;;;;;;;4974112;28;20042;-61
2022/06/19 02:52:06;;;;;;;2.35;1.00;;;;;;;;;;4990918;28;20046;-62
2022/06/19 02:54:32;;;;;;;2.15;1.05;;;;;;;;;;4990528;28;20074;-61
2022/06/19 02:56:59;;;;;;;1.58;0.80;;;;;;;;;;4993098;28;20065;-61
2022/06/19 02:59:25;;;;;;;3.03;1.00;;;;;;;;;;4989879;28;20897;-61
2022/06/19 03:01:51;;;;;;;3.45;1.23;;;;;;;;;;4973942;28;20046;-61
2022/06/19 03:04:23;;;;;;;1.67;0.77;;;;;;;;;;4990647;28;20546;-61
2022/06/19 03:06:49;;;;;;;3.50;1.00;;;;;;;;;;4990268;28;20046;-61
2022/06/19 03:09:15;;;;;;;2.03;0.70;;;;;;;;;;5000489;28;20076;-61
2022/06/19 03:11:42;;;;;;;2.80;0.80;;;;;;;;;;5008628;28;20046;-61
2022/06/19 03:14:08;;;;;;;3.15;1.30;;;;;;;;;;4989741;28;20165;-61
2022/06/19 03:16:34;;;;;;;4.00;1.50;;;;;;;;;;4991308;28;20125;-61
2022/06/19 03:19:00;;;;;;;3.22;0.88;;;;;;;;;;4992843;28;20042;-61
2022/06/19 03:21:26;;;;;;;2.50;0.90;;;;;;;;;;4998324;28;20852;-61
2022/06/19 03:23:52;;;;;;;3.30;0.90;;;;;;;;;;5013994;28;20042;-61
2022/06/19 03:26:18;;;;;;;2.90;1.35;;;;;;;;;;5013293;28;20045;-61
2022/06/19 03:28:45;;;;;;;3.55;0.82;;;;;;;;;;4995162;28;20041;-61
2022/06/19 03:31:18;;;;;;;2.70;0.80;;;;;;;;;;5012278;28;20046;-61
2022/06/19 03:33:45;;;;;;;4.13;1.10;;;;;;;;;;4994893;28;20038;-61
2022/06/19 03:36:11;;;;;;;2.90;0.90;;;;;;;;;;4994263;28;20168;-61
2022/06/19 03:38:37;;;;;;;1.88;0.90;;;;;;;;;;4977083;28;20077;-61
2022/06/19 03:41:03;;;;;;;5.28;1.00;;;;;;;;;;4993726;28;20476;-61
2022/06/19 03:43:29;;;;;;;2.55;0.80;;;;;;;;;;4993249;28;20050;-61
2022/06/19 03:45:59;;;;;;;4.22;0.90;;;;;;;;;;5005194;28;20139;-61
2022/06/19 03:48:25;;;;;;;3.72;1.00;;;;;;;;;;4994114;28;20949;-61
2022/06/19 03:50:54;;;;;;;2.65;0.82;;;;;;;;;;4994497;28;20129;-61
2022/06/19 03:53:21;;;;;;;2.40;0.90;;;;;;;;;;4993870;28;20046;-61
2022/06/19 03:55:47;;;;;;;4.00;0.98;;;;;;;;;;4997164;28;20522;-61
2022/06/19 03:58:13;;;;;;;2.78;0.77;;;;;;;;;;5012819;28;20034;-62
2022/06/19 04:00:39;;;;;;;3.20;1.10;;;;;;;;;;5013787;28;20046;-61
2022/06/19 04:03:06;;;;;;;6.40;1.10;;;;;;;;;;5013936;28;20382;-61
2022/06/19 04:05:32;;;;;;;2.92;1.00;;;;;;;;;;5012552;28;20562;-61
2022/06/19 04:07:58;;;;;;;2.95;0.90;;;;;;;;;;5013606;28;20042;-61
2022/06/19 04:10:24;;;;;;;4.45;1.30;;;;;;;;;;5004936;28;20077;-61
2022/06/19 04:12:51;;;;;;;4.53;1.08;;;;;;;;;;4993170;28;20077;-61
2022/06/19 04:15:18;;;;;;;2.95;0.93;;;;;;;;;;4993574;28;20137;-61
2022/06/19 04:17:44;;;;;;;4.70;1.00;;;;;;;;;;5010233;28;20038;-61
2022/06/19 04:20:11;;;;;;;1.85;0.80;;;;;;;;;;5012790;28;20096;-61
2022/06/19 04:22:38;;;;;;;2.83;0.82;;;;;;;;;;5013426;28;20133;-61
2022/06/19 04:25:05;;;;;;;5.55;1.00;;;;;;;;;;5012781;28;20041;-61
2022/06/19 04:27:37;;;;;;;2.72;0.90;;;;;;;;;;5011409;28;20056;-61
2022/06/19 04:30:03;;;;;;;2.13;0.70;;;;;;;;;;5012638;28;20056;-61
2022/06/19 04:32:30;;;;;;;1.75;0.88;;;;;;;;;;4998768;28;20475;-61
2022/06/19 04:34:56;;;;;;;1.83;0.75;;;;;;;;;;4992169;28;20531;-61
2022/06/19 04:37:22;;;;;;;3.83;1.35;;;;;;;;;;5012214;28;20376;-61
2022/06/19 04:39:48;;;;;;;1.92;0.73;;;;;;;;;;5012175;28;20099;-61
2022/06/19 04:42:14;;;;;;;2.08;0.82;;;;;;;;;;5012171;28;20042;-61
2022/06/19 04:44:40;;;;;;;1.38;0.90;;;;;;;;;;5000528;28;20042;-61
2022/06/19 04:47:06;;;;;;;2.28;1.02;;;;;;;;;;4993652;28;20054;-61
2022/06/19 04:49:33;;;;;;;1.58;0.85;;;;;;;;;;4992795;28;20193;-61
2022/06/19 04:51:59;;;;;;;4.13;1.38;;;;;;;;;;4987127;28;20042;-61
2022/06/19 04:54:25;;;;;;;3.17;1.00;;;;;;;;;;5011570;28;20048;-61
2022/06/19 04:56:51;;;;;;;2.42;1.00;;;;;;;;;;4993841;28;20387;-61
2022/06/19 04:59:17;;;;;;;2.05;0.88;;;;;;;;;;4991542;28;20042;-61
2022/06/19 05:01:43;;;;;;;3.30;0.98;;;;;;;;;;5003109;28;20053;-61
2022/06/19 05:04:10;;;;;;;2.63;0.90;;;;;;;;;;5012196;28;20037;-61
2022/06/19 05:06:37;;;;;;;3.90;0.95;;;;;;;;;;5012305;28;20078;-61
2022/06/19 05:09:03;;;;;;;2.42;0.80;;;;;;;;;;4978454;28;20138;-61
2022/06/19 05:11:31;;;;;;;4.35;0.75;;;;;;;;;;5011620;28;20534;-61
2022/06/19 05:13:57;;;;;;;2.25;0.88;;;;;;;;;;5011668;28;20108;-61
2022/06/19 05:16:24;;;;;;;2.38;0.80;;;;;;;;;;5011970;28;20152;-61
2022/06/19 05:18:52;;;;;;;4.88;0.90;;;;;;;;;;5012614;28;20052;-61
2022/06/19 05:21:19;;;;;;;2.60;0.68;;;;;;;;;;4994405;28;20443;-61
2022/06/19 05:23:47;;;;;;;1.83;0.70;;;;;;;;;;5006017;28;20061;-61
2022/06/19 05:26:21;;;;;;;3.13;0.82;;;;;;;;;;4991703;28;20049;-61
2022/06/19 05:28:48;;;;;;;1.15;0.55;;;;;;;;;;4987251;28;20038;-61
2022/06/19 05:31:14;;;;;;;2.25;0.90;;;;;;;;;;4991595;28;20042;-61
2022/06/19 05:33:40;;;;;;;3.00;0.80;;;;;;;;;;5012298;28;20048;-61
2022/06/19 05:36:06;;;;;;;3.72;1.10;;;;;;;;;;5012114;28;20128;-61
2022/06/19 05:38:33;;;;;;;3.00;0.93;;;;;;;;;;5011454;28;20173;-61
2022/06/19 05:40:59;;;;;;;1.73;1.10;;;;;;;;;;5011066;28;20075;-61
2022/06/19 05:43:27;;;;;;;3.10;0.98;;;;;;;;;;5010617;28;20042;-61
2022/06/19 05:45:54;;;;;;;3.55;0.70;;;;;;;;;;5004146;28;20516;-61
2022/06/19 05:48:20;;;;;;;3.83;0.90;;;;;;;;;;4991830;28;20082;-61
2022/06/19 05:50:56;;;;;;;2.78;0.65;;;;;;;;;;4992300;28;20423;-61
2022/06/19 05:53:22;;;;;;;2.33;0.70;;;;;;;;;;4991774;28;20046;-61
2022/06/19 05:55:48;;;;;;;2.83;0.77;;;;;;;;;;4976883;28;20125;-61
2022/06/19 05:58:14;;;;;;;1.20;0.68;;;;;;;;;;5000930;28;20084;-61
2022/06/19 06:00:40;;;;;;;2.88;0.90;;;;;;;;;;4991682;28;20097;-61
2022/06/19 06:03:06;;;;;;;3.10;0.90;;;;;;;;;;4992084;28;20042;-61
2022/06/19 06:05:32;;;;;;;1.10;0.68;;;;;;;;;;4991565;28;20074;-61
2022/06/19 06:07:59;;;;;;;1.73;0.80;;;;;;;;;;4991873;28;20170;-61
2022/06/19 06:10:25;;;;;;;2.85;0.90;;;;;;;;;;5007679;28;20069;-61
2022/06/19 06:12:51;;;;;;;1.35;0.60;;;;;;;;;;5010661;28;20046;-61
2022/06/19 06:15:17;;;;;;;1.70;0.40;;;;;;;;;;4993777;28;20054;-61
2022/06/19 06:17:43;;;;;;;2.35;0.93;;;;;;;;;;5011529;28;20049;-61
2022/06/19 06:20:09;;;;;;;2.88;0.52;;;;;;;;;;4992672;28;20081;-61
2022/06/19 06:22:35;;;;;;;0.68;0.47;;;;;;;;;;4993221;28;20053;-61
2022/06/19 06:25:01;;;;;;;1.63;0.73;;;;;;;;;;5001247;28;20054;-61
2022/06/19 06:27:27;;;;;;;1.10;0.60;;;;;;;;;;4996468;28;20042;-61
2022/06/19 06:29:53;;;;;;;0.77;0.52;;;;;;;;;;5010846;28;20132;-61
2022/06/19 06:32:19;;;;;;;1.75;0.52;;;;;;;;;;5010931;28;20049;-61
2022/06/19 06:34:46;;;;;;;1.92;0.68;;;;;;;;;;5010858;28;20058;-61
2022/06/19 06:37:12;;;;;;;2.88;0.70;;;;;;;;;;5002120;28;20522;-61
2022/06/19 06:39:38;;;;;;;2.80;0.70;;;;;;;;;;4995195;28;20121;-60
2022/06/19 06:42:05;;;;;;;3.03;0.73;;;;;;;;;;4994208;28;20039;-60
2022/06/19 06:44:31;;;;;;;1.00;0.60;;;;;;;;;;4990415;28;20146;-60
2022/06/19 06:46:57;;;;;;;1.88;0.60;;;;;;;;;;4991642;28;20045;-61
2022/06/19 06:49:23;;;;;;;3.15;0.93;;;;;;;;;;4990210;28;20042;-60
2022/06/19 06:51:49;;;;;;;1.77;0.80;;;;;;;;;;4988903;28;20479;-60
2022/06/19 06:54:15;;;;;;;2.33;0.70;;;;;;;;;;5014143;28;20554;-60
2022/06/19 06:56:41;;;;;;;3.97;0.90;;;;;;;;;;5016522;28;20840;-60
2022/06/19 06:59:09;;;;;;;2.67;0.73;;;;;;;;;;5014734;28;20124;-60
2022/06/19 07:01:35;;;;;;;2.58;0.88;;;;;;;;;;5016809;28;20490;-60
2022/06/19 07:04:01;;;;;;;1.48;0.60;;;;;;;;;;5010554;28;20507;-60
2022/06/19 07:06:28;;;;;;;3.90;1.10;;;;;;;;;;5016573;28;20124;-60
2022/06/19 07:08:54;;;;;;;3.50;0.75;;;;;;;;;;4999335;28;20486;-60
2022/06/19 07:11:22;;;;;;;1.75;0.73;;;;;;;;;;5017061;28;20037;-60
2022/06/19 07:13:48;;;;;;;4.05;0.93;;;;;;;;;;5013543;28;20092;-60
2022/06/19 07:16:14;;;;;;;4.95;0.98;;;;;;;;;;5006155;28;20042;-60
2022/06/19 07:18:41;;;;;;;2.13;0.80;;;;;;;;;;5005538;28;20066;-60
2022/06/19 07:21:07;;;;;;;2.92;0.73;;;;;;;;;;5017233;28;20053;-61
2022/06/19 07:23:33;;;;;;;3.88;0.63;;;;;;;;;;4998959;28;20088;-60
2022/06/19 07:25:59;;;;;;;2.88;0.95;;;;;;;;;;5016448;28;20038;-60
2022/06/19 07:28:25;;;;;;;2.55;1.02;;;;;;;;;;5015831;28;20513;-61
2022/06/19 07:30:52;;;;;;;2.22;0.68;;;;;;;;;;4999483;28;20383;-60
2022/06/19 07:33:18;;;;;;;6.93;0.85;;;;;;;;;;5006642;28;20120;-60
2022/06/19 07:35:44;;;;;;;6.32;1.10;;;;;;;;;;5001762;28;20453;-60
2022/06/19 07:38:10;;;;;;;4.53;0.93;;;;;;;;;;5016686;28;20073;-60
2022/06/19 07:40:36;;;;;;;1.58;0.65;;;;;;;;;;5008252;28;20054;-60
2022/06/19 07:43:05;;;;;;;3.75;0.70;;;;;;;;;;5011693;28;20053;-60
2022/06/19 07:45:31;;;;;;;3.13;0.80;;;;;;;;;;5009167;28;20053;-60
2022/06/19 07:50:42;;;;;;;2.33;0.95;;;;;;;;;;5005241;28;20754;-61
2022/06/19 07:53:08;;;;;;;1.15;0.57;;;;;;;;;;5000982;28;20030;-60
2022/06/19 07:55:35;;;;;;;0.57;0.57;;;;;;;;;;4991414;28;20386;-60
2022/06/19 07:58:01;;;;;;;3.63;0.95;;;;;;;;;;4998368;28;20053;-60
2022/06/19 08:00:29;;;;;;;2.95;1.05;;;;;;;;;;5002743;28;20054;-61
2022/06/19 08:02:55;;;;;;;1.70;0.80;;;;;;;;;;5008395;28;20041;-60
2022/06/19 08:05:27;;;;;;;2.60;0.68;;;;;;;;;;5012633;28;20045;-61
2022/06/19 08:07:53;;;;;;;2.25;0.88;;;;;;;;;;5003596;28;20038;-60
2022/06/19 08:10:21;;;;;;;2.97;0.80;;;;;;;;;;5000809;28;20053;-61
2022/06/19 08:12:47;;;;;;;1.30;0.50;;;;;;;;;;5000407;28;20046;-61
2022/06/19 08:15:14;;;;;;;1.85;0.98;;;;;;;;;;5002856;28;20046;-61
2022/06/19 08:17:40;;;;;;;1.23;0.68;;;;;;;;;;5000852;28;20093;-62
2022/06/19 08:20:06;;;;;;;2.33;0.70;;;;;;;;;;4978076;28;20038;-61
2022/06/19 08:22:32;;;;;;;1.65;0.80;;;;;;;;;;5005684;28;20049;-62
2022/06/19 08:24:58;;;;;;;5.82;1.13;;;;;;;;;;5007633;28;20042;-61
2022/06/19 08:27:24;;;;;;;3.03;1.00;;;;;;;;;;4997072;28;20038;-62
2022/06/19 08:29:51;;;;;;;1.15;0.63;;;;;;;;;;4997189;28;20101;-61
2022/06/19 08:32:17;;;;;;;2.92;0.80;;;;;;;;;;4981645;28;20057;-61
2022/06/19 08:34:43;;;;;;;1.75;0.52;;;;;;;;;;4975591;28;20083;-61
2022/06/19 08:37:10;;;;;;;2.78;0.98;;;;;;;;;;4996947;28;20038;-60
2022/06/19 08:39:36;;;;;;;2.15;0.80;;;;;;;;;;4998025;28;20117;-61
2022/06/19 08:42:22;;;;;;;3.60;0.80;;;;;;;;;;5001802;28;20646;-62
2022/06/19 08:45:11;;;;;;;1.80;0.77;;;;;;;;;;5009261;28;20130;-61
2022/06/19 08:47:43;;;;;;;1.33;0.60;;;;;;;;;;5009581;28;20046;-61
2022/06/19 08:50:24;;;;;;;1.10;0.50;;;;;;;;;;5009858;28;20076;-61
2022/06/19 08:53:09;;;;;;;1.30;0.60;;;;;;;;;;5006829;28;20331;-61
2022/06/19 08:55:38;;;;;;;1.60;0.57;;;;;;;;;;5002521;28;20070;-61
2022/06/19 08:58:10;;;;;;;1.20;0.70;;;;;;;;;;4998473;28;20517;-61
2022/06/19 09:00:39;;;;;;;0.80;0.60;;;;;;;;;;5010660;28;20100;-60
2022/06/19 09:03:10;;;;;;;6.40;1.38;;;;;;;;;;5011507;28;20045;-61
2022/06/19 09:05:55;;;;;;;2.35;0.75;;;;;;;;;;5004530;28;20092;-60
2022/06/19 09:08:26;;;;;;;7.07;1.48;;;;;;;;;;5005947;28;20089;-60
2022/06/19 09:11:01;;;;;;;5.75;1.00;;;;;;;;;;5010842;28;20112;-61
2022/06/19 09:13:36;;;;;;;1.58;0.68;;;;;;;;;;5011552;28;20471;-60
2022/06/19 09:16:12;;;;;;;1.63;0.60;;;;;;;;;;5011836;28;20045;-60
2022/06/19 09:18:44;;;;;;;1.77;0.45;;;;;;;;;;5012058;28;20045;-60
2022/06/19 09:21:11;;;;;;;3.78;0.80;;;;;;;;;;4994559;28;20065;-61
2022/06/19 09:23:46;;;;;;;3.92;1.10;;;;;;;;;;5010779;28;20045;-61
2022/06/19 09:26:18;;;;;;;5.60;1.23;;;;;;;;;;5005282;28;20045;-64
2022/06/19 09:28:49;;;;;;;4.25;1.13;;;;;;;;;;5009770;28;20049;-63
2022/06/19 09:31:26;;;;;;;2.70;1.17;;;;;;;;;;4987630;28;20180;-63
2022/06/19 09:34:13;;;;;;;2.42;0.82;;;;;;;;;;4993459;28;20045;-63
2022/06/19 09:36:48;;;;;;;2.78;0.80;;;;;;;;;;5005275;28;20073;-62
2022/06/19 09:39:19;;;;;;;3.42;1.02;;;;;;;;;;4967180;28;20557;-62
2022/06/19 09:42:05;;;;;;;2.35;0.75;;;;;;;;;;4972501;28;20085;-62
2022/06/19 09:44:44;;;;;;;2.42;1.10;;;;;;;;;;4971346;28;20055;-62
2022/06/19 09:47:13;;;;;;;2.35;0.65;;;;;;;;;;4974795;28;20054;-62
2022/06/19 09:49:48;;;;;;;3.35;1.00;;;;;;;;;;4972835;28;20137;-62
2022/06/19 09:52:20;;;;;;;3.00;0.93;;;;;;;;;;4972406;28;20062;-62
2022/06/19 09:54:50;;;;;;;3.60;0.77;;;;;;;;;;4971817;28;20043;-62
2022/06/19 09:57:23;;;;;;;0.98;0.70;;;;;;;;;;4981910;28;20049;-62
2022/06/19 09:59:52;;;;;;;2.90;0.95;;;;;;;;;;4974263;28;20035;-62
2022/06/19 10:02:24;;;;;;;3.38;0.60;;;;;;;;;;4985893;28;20097;-62
2022/06/19 10:04:58;;;;;;;3.25;0.90;;;;;;;;;;4975373;28;20476;-62
2022/06/19 10:07:27;;;;;;;4.55;1.27;;;;;;;;;;4982509;28;20038;-62
2022/06/19 10:09:56;;;;;;;1.25;0.68;;;;;;;;;;4986614;28;20132;-63
2022/06/19 10:12:27;;;;;;;2.17;0.82;;;;;;;;;;4977227;28;20042;-62
2022/06/19 10:14:53;;;;;;;3.58;0.77;;;;;;;;;;4985570;28;20066;-63
2022/06/19 10:17:23;;;;;;;2.08;0.70;;;;;;;;;;4973264;28;20042;-62
2022/06/19 10:20:02;;;;;;;3.03;0.82;;;;;;;;;;4973089;28;20393;-62
2022/06/19 10:22:34;;;;;;;4.13;0.88;;;;;;;;;;4972270;28;20117;-62
2022/06/19 10:25:19;;;;;;;3.35;0.95;;;;;;;;;;4968799;28;20045;-62
2022/06/19 10:27:49;;;;;;;1.60;0.85;;;;;;;;;;4971408;28;20571;-62
2022/06/19 10:30:22;;;;;;;2.25;0.73;;;;;;;;;;4975017;28;20051;-62
2022/06/19 10:33:12;;;;;;;2.70;1.27;;;;;;;;;;4970832;28;20043;-62
2022/06/19 10:35:53;;;;;;;1.52;0.80;;;;;;;;;;4967376;28;20047;-62
2022/06/19 10:38:34;;;;;;;1.33;0.70;;;;;;;;;;4979132;28;20090;-62
2022/06/19 10:42:00;;;;;;;2.20;0.95;;;;;;;;;;5004138;28;20068;-61
2022/06/19 10:44:02;;;;;;;2.63;1.00;;;;;;;;;;4995275;28;20707;-61
2022/06/19 10:46:29;;;;;;;5.63;1.73;;;;;;;;;;5010881;28;20048;-61
2022/06/19 10:48:58;;;;;;;1.63;0.70;;;;;;;;;;5010093;28;20040;-61
2022/06/19 10:51:27;;;;;;;4.82;1.13;;;;;;;;;;4981494;28;20100;-61
2022/06/19 10:54:06;;;;;;;2.35;0.93;;;;;;;;;;5008367;28;20378;-61
2022/06/19 10:56:32;;;;;;;5.15;1.10;;;;;;;;;;5010535;28;20033;-61
2022/06/19 10:58:58;;;;;;;1.40;0.70;;;;;;;;;;4993904;28;20044;-61
2022/06/19 11:04:22;;;;;;;1.38;0.70;;;;;;;;;;5009984;28;20049;-61
2022/06/19 11:06:57;;;;;;;1.27;0.70;;;;;;;;;;5010015;28;20045;-61
2022/06/19 11:09:32;;;;;;;3.10;0.63;;;;;;;;;;5009236;28;20506;-61
2022/06/19 11:12:02;;;;;;;3.53;0.70;;;;;;;;;;5010324;28;20049;-61
2022/06/19 11:14:30;;;;;;;1.95;0.73;;;;;;;;;;5009412;28;20042;-61
2022/06/19 11:16:57;;;;;;;5.03;1.05;;;;;;;;;;5009856;28;20042;-61
2022/06/19 11:19:39;;;;;;;1.90;0.77;;;;;;;;;;5009473;28;20096;-61
2022/06/19 11:22:07;;;;;;;1.95;0.63;;;;;;;;;;5009701;28;20080;-61
2022/06/19 11:24:34;;;;;;;1.00;0.60;;;;;;;;;;4994065;28;20050;-61
2022/06/19 11:27:01;;;;;;;2.92;0.82;;;;;;;;;;5007359;28;20148;-61
2022/06/19 11:29:28;;;;;;;2.35;0.60;;;;;;;;;;5009160;28;20045;-61
2022/06/19 11:32:04;;;;;;;0.77;0.55;;;;;;;;;;5005310;28;20034;-61
2022/06/19 11:34:43;;;;;;;0.60;0.60;;;;;;;;;;5001186;28;20458;-61
2022/06/19 11:37:12;;;;;;;1.30;0.57;;;;;;;;;;5006070;28;20046;-60
2022/06/19 11:39:41;;;;;;;1.30;0.80;;;;;;;;;;5006347;28;20054;-62
2022/06/19 11:42:33;;;;;;;2.30;0.93;;;;;;;;;;4996590;28;20046;-61
2022/06/19 11:45:01;;;;;;;1.92;0.80;;;;;;;;;;4988981;28;20128;-61
2022/06/19 11:47:34;;;;;;;2.80;1.20;;;;;;;;;;4992931;28;20081;-61
2022/06/19 11:50:20;;;;;;;4.13;0.88;;;;;;;;;;4980510;28;20046;-61
2022/06/19 11:52:58;;;;;;;1.02;0.45;;;;;;;;;;4996018;28;20045;-61
2022/06/19 11:55:28;;;;;;;2.05;0.52;;;;;;;;;;5008574;28;20398;-61
2022/06/19 11:57:56;;;;;;;2.15;1.00;;;;;;;;;;5004907;28;20507;-61
2022/06/19 12:00:24;;;;;;;1.65;0.60;;;;;;;;;;5000615;28;20053;-61
2022/06/19 12:02:54;;;;;;;1.15;0.60;;;;;;;;;;4999885;28;20046;-61
2022/06/19 12:05:27;;;;;;;1.95;0.70;;;;;;;;;;5005101;28;20176;-61
2022/06/19 12:07:53;;;;;;;2.15;0.60;;;;;;;;;;5000646;28;20057;-62
2022/06/19 12:10:19;;;;;;;1.98;0.65;;;;;;;;;;5007497;28;20103;-62
2022/06/19 12:12:59;;;;;;;0.50;0.50;;;;;;;;;;5007960;28;20041;-62
2022/06/19 12:15:28;;;;;;;1.38;0.60;;;;;;;;;;5011291;28;20046;-62
2022/06/19 12:18:15;;;;;;;3.78;0.70;;;;;;;;;;5008581;28;20034;-62
2022/06/19 12:20:41;;;;;;;1.15;0.57;;;;;;;;;;4999158;28;20093;-62
2022/06/19 12:23:10;;;;;;;1.75;0.60;;;;;;;;;;5001040;28;20606;-62
2022/06/19 12:25:50;;;;;;;1.08;0.60;;;;;;;;;;5010634;28;20053;-62
2022/06/19 12:28:19;;;;;;;1.20;0.73;;;;;;;;;;5009841;28;20038;-62
2022/06/19 12:30:51;;;;;;;0.65;0.50;;;;;;;;;;4997240;28;20034;-62
2022/06/19 12:33:23;;;;;;;1.45;0.65;;;;;;;;;;5010524;28;20050;-62
2022/06/19 12:35:50;;;;;;;1.65;0.57;;;;;;;;;;5010757;28;20065;-62
2022/06/19 12:38:18;;;;;;;3.30;0.88;;;;;;;;;;4997997;28;20470;-63
2022/06/19 12:40:50;;;;;;;0.88;0.70;;;;;;;;;;5011251;28;20140;-61
2022/06/19 12:43:35;;;;;;;1.35;0.60;;;;;;;;;;5011121;28;20159;-62
2022/06/19 12:46:04;;;;;;;1.30;0.80;;;;;;;;;;5003175;28;20046;-62
2022/06/19 12:48:30;;;;;;;3.25;1.08;;;;;;;;;;5012199;28;20056;-61
2022/06/19 12:51:09;;;;;;;1.73;0.65;;;;;;;;;;5010822;28;20471;-61
2022/06/19 12:53:44;;;;;;;3.92;1.10;;;;;;;;;;4994451;28;20439;-61
2022/06/19 12:56:30;;;;;;;2.05;0.93;;;;;;;;;;5010845;28;20046;-61
2022/06/19 12:59:15;;;;;;;2.03;1.00;;;;;;;;;;5010598;28;20042;-62
2022/06/19 13:01:51;;;;;;;2.22;0.90;;;;;;;;;;4999123;28;20450;-61
2022/06/19 13:04:25;;;;;;;1.15;1.05;;;;;;;;;;5011954;28;20050;-61
2022/06/19 13:07:04;;;;;;;2.60;0.80;;;;;;;;;;5010371;28;20033;-61
2022/06/19 13:09:49;;;;;;;2.00;0.65;;;;;;;;;;5007320;28;20042;-62
2022/06/19 13:12:34;;;;;;;1.35;0.80;;;;;;;;;;4998265;28;20463;-62
2022/06/19 13:15:08;;;;;;;0.80;0.70;;;;;;;;;;5011196;28;20064;-61
2022/06/19 13:17:43;;;;;;;2.55;0.68;;;;;;;;;;4994689;28;20108;-61
2022/06/19 13:20:28;;;;;;;0.60;0.60;;;;;;;;;;4979930;28;20053;-61
2022/06/19 13:23:06;;;;;;;1.02;0.70;;;;;;;;;;5011162;28;20049;-62
2022/06/19 13:25:40;;;;;;;3.25;0.80;;;;;;;;;;5010786;28;20089;-62
2022/06/19 13:28:16;;;;;;;0.75;0.70;;;;;;;;;;4982660;28;20042;-61
2022/06/19 13:30:50;;;;;;;1.08;0.70;;;;;;;;;;5011309;28;20056;-61
2022/06/19 13:33:20;;;;;;;1.50;0.90;;;;;;;;;;5011067;28;20185;-61
2022/06/19 13:35:54;;;;;;;2.15;0.77;;;;;;;;;;5011245;28;20045;-61
2022/06/19 13:38:21;;;;;;;1.17;0.70;;;;;;;;;;5011155;28;20120;-61
2022/06/19 13:40:50;;;;;;;2.05;0.80;;;;;;;;;;5010357;28;20041;-62
2022/06/19 13:43:16;;;;;;;0.55;0.55;;;;;;;;;;5009876;28;20512;-62
2022/06/19 13:45:45;;;;;;;1.73;0.70;;;;;;;;;;5011440;28;20042;-61
2022/06/19 13:48:11;;;;;;;1.45;0.60;;;;;;;;;;5010853;28;20038;-61
2022/06/19 13:50:42;;;;;;;0.68;0.63;;;;;;;;;;5009289;28;20521;-62
2022/06/19 13:53:08;;;;;;;0.88;0.60;;;;;;;;;;4991161;28;20050;-62
2022/06/19 13:56:00;;;;;;;0.50;0.50;;;;;;;;;;4991050;28;20721;-62
2022/06/19 13:58:41;;;;;;;2.05;0.80;;;;;;;;;;4969930;28;20065;-62
2022/06/19 14:01:10;;;;;;;2.58;0.70;;;;;;;;;;5000754;28;20053;-61
2022/06/19 14:06:48;;;;;;;1.63;0.75;;;;;;;;;;5011273;28;20046;-61
2022/06/19 14:09:31;;;;;;;1.27;0.60;;;;;;;;;;4992132;28;20042;-61
2022/06/19 14:12:04;;;;;;;0.47;0.47;;;;;;;;;;5008654;28;20107;-61
2022/06/19 14:14:39;;;;;;;0.93;0.63;;;;;;;;;;5010097;28;20041;-61
2022/06/19 14:17:24;;;;;;;3.22;0.90;;;;;;;;;;5010655;28;20046;-62
2022/06/19 14:19:58;;;;;;;0.98;0.70;;;;;;;;;;5010696;28;20491;-62
2022/06/19 14:22:34;;;;;;;0.65;0.63;;;;;;;;;;5010904;28;20049;-61
2022/06/19 14:25:17;;;;;;;1.55;0.47;;;;;;;;;;5005688;28;20046;-61
2022/06/19 14:27:53;;;;;;;2.50;0.60;;;;;;;;;;4990328;28;20483;-61
2022/06/19 14:30:21;;;;;;;1.42;0.90;;;;;;;;;;4990613;28;20046;-61
2022/06/19 14:32:52;;;;;;;0.70;0.70;;;;;;;;;;4991191;28;20050;-61
2022/06/19 14:35:21;;;;;;;3.47;0.90;;;;;;;;;;4997792;28;20042;-64
2022/06/19 14:37:48;;;;;;;4.80;0.73;;;;;;;;;;4982772;28;20223;-63
2022/06/19 14:40:20;;;;;;;2.47;1.02;;;;;;;;;;4990866;28;20081;-63
2022/06/19 14:42:49;;;;;;;1.55;0.52;;;;;;;;;;4989155;28;20554;-63
2022/06/19 14:45:18;;;;;;;2.83;0.68;;;;;;;;;;4991179;28;20059;-63
2022/06/19 14:48:04;;;;;;;1.50;0.60;;;;;;;;;;5014040;28;20049;-63
2022/06/19 14:50:30;;;;;;;0.70;0.70;;;;;;;;;;5010225;28;20117;-63
2022/06/19 14:53:06;;;;;;;1.95;0.70;;;;;;;;;;5001021;28;20114;-63
2022/06/19 14:55:40;;;;;;;2.25;0.80;;;;;;;;;;5003984;28;20049;-63
2022/06/19 14:58:17;;;;;;;1.02;0.63;;;;;;;;;;4989674;28;20456;-63
2022/06/19 15:01:00;;;;;;;0.55;0.30;;;;;;;;;;4990891;28;20061;-63
2022/06/19 15:03:26;;;;;;;0.95;0.57;;;;;;;;;;5002747;28;20042;-63
2022/06/19 15:05:54;;;;;;;1.15;0.43;;;;;;;;;;5009943;28;20316;-63
2022/06/19 15:08:24;;;;;;;0.77;0.60;;;;;;;;;;5009279;28;20045;-63
2022/06/19 15:10:54;;;;;;;1.48;0.50;;;;;;;;;;4991872;28;20112;-63